sensor_id;sensor_type;location;lat;lon;timestamp;P1;durP1;ratioP1;P2;durP2;ratioP2
45792;SDS011;31495;42.740;22.908;2023-02-19T00:00:00;20.58;;;10.23;;
45792;SDS011;31495;42.740;22.908;2023-02-19T00:01:05;16.25;;;8.13;;
45792;SDS011;31495;42.740;22.908;2023-02-19T00:02:07;17.92;;;8.57;;
45792;SDS011;31495;42.740;22.908;2023-02-19T00:03:07;19.50;;;9.55;;
45792;SDS011;31495;42.740;22.908;2023-02-19T00:05:12;19.33;;;9.30;;
45792;SDS011;31495;42.740;22.908;2023-02-19T00:06:12;22.65;;;10.00;;
45792;SDS011;31495;42.740;22.908;2023-02-19T00:07:11;23.05;;;10.10;;
45792;SDS011;31495;42.740;22.908;2023-02-19T00:08:11;24.90;;;11.85;;
45792;SDS011;31495;42.740;22.908;2023-02-19T00:09:11;29.73;;;12.55;;
45792;SDS011;31495;42.740;22.908;2023-02-19T00:10:11;26.10;;;12.25;;
45792;SDS011;31495;42.740;22.908;2023-02-19T00:11:12;24.13;;;11.68;;
45792;SDS011;31495;42.740;22.908;2023-02-19T00:12:13;27.15;;;11.75;;
45792;SDS011;31495;42.740;22.908;2023-02-19T00:13:13;23.50;;;11.85;;
45792;SDS011;31495;42.740;22.908;2023-02-19T00:14:14;28.20;;;13.02;;
45792;SDS011;31495;42.740;22.908;2023-02-19T00:15:15;22.65;;;10.85;;
45792;SDS011;31495;42.740;22.908;2023-02-19T00:16:18;24.65;;;11.07;;
45792;SDS011;31495;42.740;22.908;2023-02-19T00:17:29;21.63;;;11.65;;
45792;SDS011;31495;42.740;22.908;2023-02-19T00:18:29;20.00;;;10.98;;
45792;SDS011;31495;42.740;22.908;2023-02-19T00:19:29;29.05;;;12.70;;
45792;SDS011;31495;42.740;22.908;2023-02-19T00:20:29;29.67;;;12.23;;
45792;SDS011;31495;42.740;22.908;2023-02-19T00:21:28;31.67;;;12.77;;
45792;SDS011;31495;42.740;22.908;2023-02-19T00:22:28;31.50;;;12.77;;
45792;SDS011;31495;42.740;22.908;2023-02-19T00:23:28;29.05;;;12.25;;
45792;SDS011;31495;42.740;22.908;2023-02-19T00:24:28;31.42;;;12.38;;
45792;SDS011;31495;42.740;22.908;2023-02-19T00:25:27;31.30;;;12.27;;
45792;SDS011;31495;42.740;22.908;2023-02-19T00:26:27;27.98;;;12.57;;
45792;SDS011;31495;42.740;22.908;2023-02-19T00:27:26;30.90;;;11.75;;
45792;SDS011;31495;42.740;22.908;2023-02-19T00:28:26;26.30;;;13.10;;
45792;SDS011;31495;42.740;22.908;2023-02-19T00:29:26;23.85;;;11.60;;
45792;SDS011;31495;42.740;22.908;2023-02-19T00:30:25;27.40;;;12.20;;
45792;SDS011;31495;42.740;22.908;2023-02-19T00:31:32;28.27;;;12.10;;
45792;SDS011;31495;42.740;22.908;2023-02-19T00:32:32;31.92;;;14.35;;
45792;SDS011;31495;42.740;22.908;2023-02-19T00:33:32;28.85;;;13.48;;
45792;SDS011;31495;42.740;22.908;2023-02-19T00:34:32;27.33;;;13.27;;
45792;SDS011;31495;42.740;22.908;2023-02-19T00:35:34;31.35;;;14.30;;
45792;SDS011;31495;42.740;22.908;2023-02-19T00:36:35;19.98;;;10.60;;
45792;SDS011;31495;42.740;22.908;2023-02-19T00:37:36;17.77;;;8.52;;
45792;SDS011;31495;42.740;22.908;2023-02-19T00:38:35;18.10;;;8.55;;
45792;SDS011;31495;42.740;22.908;2023-02-19T00:39:36;18.65;;;8.75;;
45792;SDS011;31495;42.740;22.908;2023-02-19T00:40:36;18.02;;;9.57;;
45792;SDS011;31495;42.740;22.908;2023-02-19T00:41:36;20.92;;;9.93;;
45792;SDS011;31495;42.740;22.908;2023-02-19T00:42:36;19.15;;;8.68;;
45792;SDS011;31495;42.740;22.908;2023-02-19T00:43:35;17.00;;;8.35;;
45792;SDS011;31495;42.740;22.908;2023-02-19T00:44:35;17.95;;;7.63;;
45792;SDS011;31495;42.740;22.908;2023-02-19T00:45:34;13.80;;;7.35;;
45792;SDS011;31495;42.740;22.908;2023-02-19T00:46:35;16.20;;;6.95;;
45792;SDS011;31495;42.740;22.908;2023-02-19T00:47:36;14.50;;;6.13;;
45792;SDS011;31495;42.740;22.908;2023-02-19T00:48:36;15.15;;;5.80;;
45792;SDS011;31495;42.740;22.908;2023-02-19T00:49:35;19.50;;;7.47;;
45792;SDS011;31495;42.740;22.908;2023-02-19T00:50:35;13.63;;;6.00;;
45792;SDS011;31495;42.740;22.908;2023-02-19T00:51:35;15.35;;;6.55;;
45792;SDS011;31495;42.740;22.908;2023-02-19T00:52:35;11.07;;;5.97;;
45792;SDS011;31495;42.740;22.908;2023-02-19T00:53:35;13.05;;;5.50;;
45792;SDS011;31495;42.740;22.908;2023-02-19T00:54:35;16.10;;;9.05;;
45792;SDS011;31495;42.740;22.908;2023-02-19T00:55:34;29.95;;;12.70;;
45792;SDS011;31495;42.740;22.908;2023-02-19T00:56:34;13.93;;;6.93;;
45792;SDS011;31495;42.740;22.908;2023-02-19T00:57:34;11.95;;;5.75;;
45792;SDS011;31495;42.740;22.908;2023-02-19T00:58:33;13.15;;;6.60;;
45792;SDS011;31495;42.740;22.908;2023-02-19T00:59:33;16.67;;;8.45;;
45792;SDS011;31495;42.740;22.908;2023-02-19T01:01:34;22.05;;;10.43;;
45792;SDS011;31495;42.740;22.908;2023-02-19T01:02:34;23.05;;;10.57;;
45792;SDS011;31495;42.740;22.908;2023-02-19T01:03:33;24.67;;;10.60;;
45792;SDS011;31495;42.740;22.908;2023-02-19T01:04:34;20.38;;;10.00;;
45792;SDS011;31495;42.740;22.908;2023-02-19T01:05:34;17.33;;;8.32;;
45792;SDS011;31495;42.740;22.908;2023-02-19T01:06:33;16.13;;;7.85;;
45792;SDS011;31495;42.740;22.908;2023-02-19T01:07:36;15.48;;;7.95;;
45792;SDS011;31495;42.740;22.908;2023-02-19T01:08:36;19.23;;;8.70;;
45792;SDS011;31495;42.740;22.908;2023-02-19T01:09:36;13.65;;;6.00;;
45792;SDS011;31495;42.740;22.908;2023-02-19T01:10:36;14.63;;;6.60;;
45792;SDS011;31495;42.740;22.908;2023-02-19T01:11:36;13.98;;;6.05;;
45792;SDS011;31495;42.740;22.908;2023-02-19T01:12:35;18.92;;;5.95;;
45792;SDS011;31495;42.740;22.908;2023-02-19T01:13:35;11.57;;;5.28;;
45792;SDS011;31495;42.740;22.908;2023-02-19T01:14:35;14.77;;;7.20;;
45792;SDS011;31495;42.740;22.908;2023-02-19T01:15:34;24.90;;;8.50;;
45792;SDS011;31495;42.740;22.908;2023-02-19T01:16:34;19.25;;;10.27;;
45792;SDS011;31495;42.740;22.908;2023-02-19T01:17:34;18.45;;;9.52;;
45792;SDS011;31495;42.740;22.908;2023-02-19T01:18:34;16.63;;;8.60;;
45792;SDS011;31495;42.740;22.908;2023-02-19T01:19:34;17.27;;;9.30;;
45792;SDS011;31495;42.740;22.908;2023-02-19T01:20:33;25.00;;;10.07;;
45792;SDS011;31495;42.740;22.908;2023-02-19T01:21:32;15.85;;;8.25;;
45792;SDS011;31495;42.740;22.908;2023-02-19T01:22:32;15.75;;;9.15;;
45792;SDS011;31495;42.740;22.908;2023-02-19T01:23:31;13.60;;;7.95;;
45792;SDS011;31495;42.740;22.908;2023-02-19T01:24:31;15.40;;;7.55;;
45792;SDS011;31495;42.740;22.908;2023-02-19T01:25:30;19.58;;;8.60;;
45792;SDS011;31495;42.740;22.908;2023-02-19T01:26:30;17.20;;;8.07;;
45792;SDS011;31495;42.740;22.908;2023-02-19T01:27:31;19.25;;;10.38;;
45792;SDS011;31495;42.740;22.908;2023-02-19T01:28:30;24.00;;;10.35;;
45792;SDS011;31495;42.740;22.908;2023-02-19T01:29:30;22.85;;;10.88;;
45792;SDS011;31495;42.740;22.908;2023-02-19T01:30:29;24.77;;;10.98;;
45792;SDS011;31495;42.740;22.908;2023-02-19T01:31:30;24.73;;;10.88;;
45792;SDS011;31495;42.740;22.908;2023-02-19T01:32:30;21.73;;;9.88;;
45792;SDS011;31495;42.740;22.908;2023-02-19T01:33:30;19.90;;;10.93;;
45792;SDS011;31495;42.740;22.908;2023-02-19T01:34:29;18.25;;;9.20;;
45792;SDS011;31495;42.740;22.908;2023-02-19T01:35:31;19.98;;;9.15;;
45792;SDS011;31495;42.740;22.908;2023-02-19T01:36:31;18.30;;;8.15;;
45792;SDS011;31495;42.740;22.908;2023-02-19T01:37:32;21.08;;;7.90;;
45792;SDS011;31495;42.740;22.908;2023-02-19T01:38:31;16.30;;;7.65;;
45792;SDS011;31495;42.740;22.908;2023-02-19T01:39:31;16.33;;;6.93;;
45792;SDS011;31495;42.740;22.908;2023-02-19T01:40:30;14.05;;;5.80;;
45792;SDS011;31495;42.740;22.908;2023-02-19T01:41:35;15.63;;;6.15;;
45792;SDS011;31495;42.740;22.908;2023-02-19T01:42:41;11.88;;;5.30;;
45792;SDS011;31495;42.740;22.908;2023-02-19T01:43:59;11.75;;;5.00;;
45792;SDS011;31495;42.740;22.908;2023-02-19T01:45:14;9.77;;;4.07;;
45792;SDS011;31495;42.740;22.908;2023-02-19T01:46:16;10.27;;;4.00;;
45792;SDS011;31495;42.740;22.908;2023-02-19T01:47:16;8.52;;;3.63;;
45792;SDS011;31495;42.740;22.908;2023-02-19T01:48:19;8.20;;;3.78;;
45792;SDS011;31495;42.740;22.908;2023-02-19T01:49:22;12.25;;;4.50;;
45792;SDS011;31495;42.740;22.908;2023-02-19T01:50:26;11.35;;;4.72;;
45792;SDS011;31495;42.740;22.908;2023-02-19T01:51:28;11.63;;;5.20;;
45792;SDS011;31495;42.740;22.908;2023-02-19T01:52:33;13.07;;;5.10;;
45792;SDS011;31495;42.740;22.908;2023-02-19T01:53:42;14.48;;;5.88;;
45792;SDS011;31495;42.740;22.908;2023-02-19T01:54:43;14.15;;;6.03;;
45792;SDS011;31495;42.740;22.908;2023-02-19T01:55:43;15.57;;;5.82;;
45792;SDS011;31495;42.740;22.908;2023-02-19T01:56:46;15.48;;;5.47;;
45792;SDS011;31495;42.740;22.908;2023-02-19T01:57:47;15.32;;;5.47;;
45792;SDS011;31495;42.740;22.908;2023-02-19T01:58:51;11.68;;;5.65;;
45792;SDS011;31495;42.740;22.908;2023-02-19T01:59:52;13.50;;;5.53;;
45792;SDS011;31495;42.740;22.908;2023-02-19T02:00:58;11.63;;;5.63;;
45792;SDS011;31495;42.740;22.908;2023-02-19T02:02:01;11.55;;;6.28;;
45792;SDS011;31495;42.740;22.908;2023-02-19T02:03:00;12.60;;;5.50;;
45792;SDS011;31495;42.740;22.908;2023-02-19T02:04:00;12.15;;;5.93;;
45792;SDS011;31495;42.740;22.908;2023-02-19T02:05:00;12.38;;;6.35;;
45792;SDS011;31495;42.740;22.908;2023-02-19T02:06:06;14.70;;;6.25;;
45792;SDS011;31495;42.740;22.908;2023-02-19T02:07:10;14.02;;;7.50;;
45792;SDS011;31495;42.740;22.908;2023-02-19T02:08:30;16.20;;;7.65;;
45792;SDS011;31495;42.740;22.908;2023-02-19T02:09:50;17.20;;;7.38;;
45792;SDS011;31495;42.740;22.908;2023-02-19T02:11:09;16.77;;;8.38;;
45792;SDS011;31495;42.740;22.908;2023-02-19T02:12:08;16.15;;;6.68;;
45792;SDS011;31495;42.740;22.908;2023-02-19T02:13:08;12.70;;;6.05;;
45792;SDS011;31495;42.740;22.908;2023-02-19T02:14:07;14.95;;;6.57;;
45792;SDS011;31495;42.740;22.908;2023-02-19T02:15:07;16.55;;;7.60;;
45792;SDS011;31495;42.740;22.908;2023-02-19T02:16:29;16.95;;;7.05;;
45792;SDS011;31495;42.740;22.908;2023-02-19T02:17:49;13.63;;;6.43;;
45792;SDS011;31495;42.740;22.908;2023-02-19T02:18:57;12.65;;;6.22;;
45792;SDS011;31495;42.740;22.908;2023-02-19T02:22:17;14.65;;;7.63;;
45792;SDS011;31495;42.740;22.908;2023-02-19T02:24:24;17.15;;;8.00;;
45792;SDS011;31495;42.740;22.908;2023-02-19T02:25:46;21.60;;;10.50;;
45792;SDS011;31495;42.740;22.908;2023-02-19T02:27:05;18.67;;;8.93;;
45792;SDS011;31495;42.740;22.908;2023-02-19T02:31:51;20.67;;;11.23;;
45792;SDS011;31495;42.740;22.908;2023-02-19T02:33:03;22.52;;;11.02;;
45792;SDS011;31495;42.740;22.908;2023-02-19T02:35:16;18.88;;;8.50;;
45792;SDS011;31495;42.740;22.908;2023-02-19T02:36:32;18.83;;;8.00;;
45792;SDS011;31495;42.740;22.908;2023-02-19T02:37:36;16.58;;;8.45;;
45792;SDS011;31495;42.740;22.908;2023-02-19T02:38:38;21.75;;;10.30;;
45792;SDS011;31495;42.740;22.908;2023-02-19T02:39:41;20.23;;;8.50;;
45792;SDS011;31495;42.740;22.908;2023-02-19T02:40:43;16.13;;;6.95;;
45792;SDS011;31495;42.740;22.908;2023-02-19T02:41:48;18.08;;;9.05;;
45792;SDS011;31495;42.740;22.908;2023-02-19T02:43:11;22.42;;;10.25;;
45792;SDS011;31495;42.740;22.908;2023-02-19T02:44:12;18.85;;;9.48;;
45792;SDS011;31495;42.740;22.908;2023-02-19T02:46:36;20.02;;;10.25;;
45792;SDS011;31495;42.740;22.908;2023-02-19T02:47:40;22.98;;;10.05;;
45792;SDS011;31495;42.740;22.908;2023-02-19T02:49:51;27.23;;;11.23;;
45792;SDS011;31495;42.740;22.908;2023-02-19T02:51:12;23.23;;;11.60;;
45792;SDS011;31495;42.740;22.908;2023-02-19T02:52:13;20.67;;;9.82;;
45792;SDS011;31495;42.740;22.908;2023-02-19T02:54:55;18.38;;;8.40;;
45792;SDS011;31495;42.740;22.908;2023-02-19T02:56:01;20.23;;;9.50;;
45792;SDS011;31495;42.740;22.908;2023-02-19T02:57:02;21.20;;;9.32;;
45792;SDS011;31495;42.740;22.908;2023-02-19T02:58:02;21.40;;;10.02;;
45792;SDS011;31495;42.740;22.908;2023-02-19T02:59:04;16.67;;;9.10;;
45792;SDS011;31495;42.740;22.908;2023-02-19T03:00:06;19.55;;;9.48;;
45792;SDS011;31495;42.740;22.908;2023-02-19T03:01:17;19.08;;;8.85;;
45792;SDS011;31495;42.740;22.908;2023-02-19T03:02:41;16.48;;;8.70;;
45792;SDS011;31495;42.740;22.908;2023-02-19T03:03:42;19.50;;;9.02;;
45792;SDS011;31495;42.740;22.908;2023-02-19T03:06:22;14.43;;;8.57;;
45792;SDS011;31495;42.740;22.908;2023-02-19T03:08:26;13.93;;;7.63;;
45792;SDS011;31495;42.740;22.908;2023-02-19T03:09:35;18.67;;;8.80;;
45792;SDS011;31495;42.740;22.908;2023-02-19T03:10:50;16.85;;;8.13;;
45792;SDS011;31495;42.740;22.908;2023-02-19T03:11:54;18.15;;;8.43;;
45792;SDS011;31495;42.740;22.908;2023-02-19T03:13:21;17.23;;;8.43;;
45792;SDS011;31495;42.740;22.908;2023-02-19T03:14:52;16.55;;;8.57;;
45792;SDS011;31495;42.740;22.908;2023-02-19T03:16:25;17.70;;;8.35;;
45792;SDS011;31495;42.740;22.908;2023-02-19T03:17:50;16.75;;;9.43;;
45792;SDS011;31495;42.740;22.908;2023-02-19T03:19:12;14.32;;;9.07;;
45792;SDS011;31495;42.740;22.908;2023-02-19T03:20:18;24.80;;;11.70;;
45792;SDS011;31495;42.740;22.908;2023-02-19T03:21:21;19.50;;;10.50;;
45792;SDS011;31495;42.740;22.908;2023-02-19T03:22:24;18.63;;;9.63;;
45792;SDS011;31495;42.740;22.908;2023-02-19T03:23:28;32.15;;;13.65;;
45792;SDS011;31495;42.740;22.908;2023-02-19T03:24:51;46.38;;;17.65;;
45792;SDS011;31495;42.740;22.908;2023-02-19T03:26:22;57.00;;;22.67;;
45792;SDS011;31495;42.740;22.908;2023-02-19T03:27:25;41.97;;;20.02;;
45792;SDS011;31495;42.740;22.908;2023-02-19T03:28:29;34.05;;;15.30;;
45792;SDS011;31495;42.740;22.908;2023-02-19T03:29:52;35.80;;;15.75;;
45792;SDS011;31495;42.740;22.908;2023-02-19T03:30:55;43.03;;;19.30;;
45792;SDS011;31495;42.740;22.908;2023-02-19T03:31:59;45.35;;;20.38;;
45792;SDS011;31495;42.740;22.908;2023-02-19T03:33:10;46.38;;;20.77;;
45792;SDS011;31495;42.740;22.908;2023-02-19T03:34:15;45.88;;;20.90;;
45792;SDS011;31495;42.740;22.908;2023-02-19T03:35:23;34.05;;;17.08;;
45792;SDS011;31495;42.740;22.908;2023-02-19T03:36:26;38.05;;;15.70;;
45792;SDS011;31495;42.740;22.908;2023-02-19T03:37:36;40.10;;;19.38;;
45792;SDS011;31495;42.740;22.908;2023-02-19T03:38:51;41.90;;;19.05;;
45792;SDS011;31495;42.740;22.908;2023-02-19T03:39:56;39.08;;;15.93;;
45792;SDS011;31495;42.740;22.908;2023-02-19T03:40:58;31.52;;;15.77;;
45792;SDS011;31495;42.740;22.908;2023-02-19T03:42:07;35.67;;;16.83;;
45792;SDS011;31495;42.740;22.908;2023-02-19T03:46:06;39.92;;;19.23;;
45792;SDS011;31495;42.740;22.908;2023-02-19T03:49:46;29.67;;;15.15;;
45792;SDS011;31495;42.740;22.908;2023-02-19T03:50:51;26.75;;;11.43;;
45792;SDS011;31495;42.740;22.908;2023-02-19T03:55:07;19.00;;;10.55;;
45792;SDS011;31495;42.740;22.908;2023-02-19T03:57:35;27.52;;;14.35;;
45792;SDS011;31495;42.740;22.908;2023-02-19T04:02:09;23.02;;;11.50;;
45792;SDS011;31495;42.740;22.908;2023-02-19T04:04:24;22.55;;;11.43;;
45792;SDS011;31495;42.740;22.908;2023-02-19T04:05:29;22.38;;;10.18;;
45792;SDS011;31495;42.740;22.908;2023-02-19T04:06:31;19.55;;;10.57;;
45792;SDS011;31495;42.740;22.908;2023-02-19T04:07:34;23.73;;;11.45;;
45792;SDS011;31495;42.740;22.908;2023-02-19T04:08:39;26.38;;;12.32;;
45792;SDS011;31495;42.740;22.908;2023-02-19T04:09:46;20.83;;;10.85;;
45792;SDS011;31495;42.740;22.908;2023-02-19T04:10:48;23.77;;;12.00;;
45792;SDS011;31495;42.740;22.908;2023-02-19T04:11:49;20.60;;;10.93;;
45792;SDS011;31495;42.740;22.908;2023-02-19T04:13:01;20.73;;;12.63;;
45792;SDS011;31495;42.740;22.908;2023-02-19T04:14:38;25.55;;;11.57;;
45792;SDS011;31495;42.740;22.908;2023-02-19T04:15:49;15.13;;;8.68;;
45792;SDS011;31495;42.740;22.908;2023-02-19T04:16:53;22.85;;;11.40;;
45792;SDS011;31495;42.740;22.908;2023-02-19T04:18:03;27.15;;;13.63;;
45792;SDS011;31495;42.740;22.908;2023-02-19T04:19:10;22.15;;;12.75;;
45792;SDS011;31495;42.740;22.908;2023-02-19T04:20:13;26.92;;;14.75;;
45792;SDS011;31495;42.740;22.908;2023-02-19T04:21:14;27.77;;;13.05;;
45792;SDS011;31495;42.740;22.908;2023-02-19T04:22:15;25.38;;;11.38;;
45792;SDS011;31495;42.740;22.908;2023-02-19T04:23:16;23.83;;;11.45;;
45792;SDS011;31495;42.740;22.908;2023-02-19T04:24:25;20.95;;;9.52;;
45792;SDS011;31495;42.740;22.908;2023-02-19T04:25:32;16.95;;;9.52;;
45792;SDS011;31495;42.740;22.908;2023-02-19T04:26:35;19.45;;;10.45;;
45792;SDS011;31495;42.740;22.908;2023-02-19T04:27:38;17.95;;;9.52;;
45792;SDS011;31495;42.740;22.908;2023-02-19T04:28:39;26.08;;;13.18;;
45792;SDS011;31495;42.740;22.908;2023-02-19T04:29:41;26.45;;;12.00;;
45792;SDS011;31495;42.740;22.908;2023-02-19T04:30:41;21.83;;;12.05;;
45792;SDS011;31495;42.740;22.908;2023-02-19T04:31:41;22.05;;;10.98;;
45792;SDS011;31495;42.740;22.908;2023-02-19T04:32:40;22.13;;;12.63;;
45792;SDS011;31495;42.740;22.908;2023-02-19T04:33:40;25.98;;;13.95;;
45792;SDS011;31495;42.740;22.908;2023-02-19T04:34:39;25.85;;;12.30;;
45792;SDS011;31495;42.740;22.908;2023-02-19T04:35:39;21.27;;;12.15;;
45792;SDS011;31495;42.740;22.908;2023-02-19T04:36:38;24.48;;;12.88;;
45792;SDS011;31495;42.740;22.908;2023-02-19T04:37:38;23.15;;;12.15;;
45792;SDS011;31495;42.740;22.908;2023-02-19T04:38:37;29.65;;;14.20;;
45792;SDS011;31495;42.740;22.908;2023-02-19T04:39:37;23.17;;;12.65;;
45792;SDS011;31495;42.740;22.908;2023-02-19T04:40:36;25.02;;;13.77;;
45792;SDS011;31495;42.740;22.908;2023-02-19T04:41:36;26.10;;;13.23;;
45792;SDS011;31495;42.740;22.908;2023-02-19T04:42:35;27.10;;;13.57;;
45792;SDS011;31495;42.740;22.908;2023-02-19T04:43:34;27.30;;;13.23;;
45792;SDS011;31495;42.740;22.908;2023-02-19T04:44:34;21.95;;;10.52;;
45792;SDS011;31495;42.740;22.908;2023-02-19T04:45:35;20.80;;;11.68;;
45792;SDS011;31495;42.740;22.908;2023-02-19T04:46:36;25.67;;;13.35;;
45792;SDS011;31495;42.740;22.908;2023-02-19T04:47:35;22.95;;;12.68;;
45792;SDS011;31495;42.740;22.908;2023-02-19T04:48:34;21.25;;;12.05;;
45792;SDS011;31495;42.740;22.908;2023-02-19T04:49:34;21.38;;;11.38;;
45792;SDS011;31495;42.740;22.908;2023-02-19T04:50:33;22.55;;;11.02;;
45792;SDS011;31495;42.740;22.908;2023-02-19T04:51:33;18.33;;;11.05;;
45792;SDS011;31495;42.740;22.908;2023-02-19T04:52:32;19.20;;;9.77;;
45792;SDS011;31495;42.740;22.908;2023-02-19T04:53:32;19.60;;;10.30;;
45792;SDS011;31495;42.740;22.908;2023-02-19T04:54:31;18.45;;;10.20;;
45792;SDS011;31495;42.740;22.908;2023-02-19T04:55:31;19.80;;;9.85;;
45792;SDS011;31495;42.740;22.908;2023-02-19T04:56:34;16.70;;;8.90;;
45792;SDS011;31495;42.740;22.908;2023-02-19T04:57:33;19.70;;;10.00;;
45792;SDS011;31495;42.740;22.908;2023-02-19T04:58:33;22.25;;;10.18;;
45792;SDS011;31495;42.740;22.908;2023-02-19T04:59:33;20.83;;;10.10;;
45792;SDS011;31495;42.740;22.908;2023-02-19T05:00:33;19.10;;;9.07;;
45792;SDS011;31495;42.740;22.908;2023-02-19T05:01:32;20.25;;;10.32;;
45792;SDS011;31495;42.740;22.908;2023-02-19T05:02:31;21.70;;;10.88;;
45792;SDS011;31495;42.740;22.908;2023-02-19T05:03:31;21.52;;;11.05;;
45792;SDS011;31495;42.740;22.908;2023-02-19T05:04:33;24.52;;;12.98;;
45792;SDS011;31495;42.740;22.908;2023-02-19T05:05:33;23.33;;;12.82;;
45792;SDS011;31495;42.740;22.908;2023-02-19T05:06:33;22.38;;;11.15;;
45792;SDS011;31495;42.740;22.908;2023-02-19T05:07:32;23.70;;;11.00;;
45792;SDS011;31495;42.740;22.908;2023-02-19T05:08:32;26.00;;;11.73;;
45792;SDS011;31495;42.740;22.908;2023-02-19T05:09:31;18.00;;;9.77;;
45792;SDS011;31495;42.740;22.908;2023-02-19T05:10:31;20.63;;;10.80;;
45792;SDS011;31495;42.740;22.908;2023-02-19T05:11:32;30.88;;;12.80;;
45792;SDS011;31495;42.740;22.908;2023-02-19T05:12:31;25.45;;;12.93;;
45792;SDS011;31495;42.740;22.908;2023-02-19T05:13:31;26.98;;;15.05;;
45792;SDS011;31495;42.740;22.908;2023-02-19T05:14:30;34.65;;;16.58;;
45792;SDS011;31495;42.740;22.908;2023-02-19T05:15:30;32.97;;;15.45;;
45792;SDS011;31495;42.740;22.908;2023-02-19T05:16:29;29.77;;;15.70;;
45792;SDS011;31495;42.740;22.908;2023-02-19T05:17:31;33.38;;;17.50;;
45792;SDS011;31495;42.740;22.908;2023-02-19T05:18:32;38.05;;;18.63;;
45792;SDS011;31495;42.740;22.908;2023-02-19T05:19:32;55.85;;;25.25;;
45792;SDS011;31495;42.740;22.908;2023-02-19T05:20:32;64.72;;;30.63;;
45792;SDS011;31495;42.740;22.908;2023-02-19T05:21:31;63.42;;;29.70;;
45792;SDS011;31495;42.740;22.908;2023-02-19T05:22:31;51.40;;;23.67;;
45792;SDS011;31495;42.740;22.908;2023-02-19T05:23:30;38.13;;;18.52;;
45792;SDS011;31495;42.740;22.908;2023-02-19T05:24:30;35.95;;;17.40;;
45792;SDS011;31495;42.740;22.908;2023-02-19T05:25:29;35.80;;;17.48;;
45792;SDS011;31495;42.740;22.908;2023-02-19T05:26:29;37.55;;;17.70;;
45792;SDS011;31495;42.740;22.908;2023-02-19T05:27:29;57.05;;;22.88;;
45792;SDS011;31495;42.740;22.908;2023-02-19T05:28:30;40.03;;;20.13;;
45792;SDS011;31495;42.740;22.908;2023-02-19T05:29:29;45.63;;;21.77;;
45792;SDS011;31495;42.740;22.908;2023-02-19T05:30:29;51.25;;;23.30;;
45792;SDS011;31495;42.740;22.908;2023-02-19T05:31:29;50.67;;;24.48;;
45792;SDS011;31495;42.740;22.908;2023-02-19T05:32:29;86.57;;;37.88;;
45792;SDS011;31495;42.740;22.908;2023-02-19T05:33:28;95.68;;;43.25;;
45792;SDS011;31495;42.740;22.908;2023-02-19T05:34:28;85.32;;;37.92;;
45792;SDS011;31495;42.740;22.908;2023-02-19T05:35:27;80.40;;;36.95;;
45792;SDS011;31495;42.740;22.908;2023-02-19T05:36:27;77.13;;;35.50;;
45792;SDS011;31495;42.740;22.908;2023-02-19T05:37:26;59.88;;;25.80;;
45792;SDS011;31495;42.740;22.908;2023-02-19T05:38:26;36.00;;;17.90;;
45792;SDS011;31495;42.740;22.908;2023-02-19T05:39:25;31.13;;;15.77;;
45792;SDS011;31495;42.740;22.908;2023-02-19T05:40:25;32.38;;;14.57;;
45792;SDS011;31495;42.740;22.908;2023-02-19T05:41:26;29.02;;;14.23;;
45792;SDS011;31495;42.740;22.908;2023-02-19T05:42:26;28.95;;;14.63;;
45792;SDS011;31495;42.740;22.908;2023-02-19T05:43:26;25.63;;;13.57;;
45792;SDS011;31495;42.740;22.908;2023-02-19T05:44:25;30.13;;;15.23;;
45792;SDS011;31495;42.740;22.908;2023-02-19T05:45:25;49.90;;;22.67;;
45792;SDS011;31495;42.740;22.908;2023-02-19T05:46:25;41.63;;;19.15;;
45792;SDS011;31495;42.740;22.908;2023-02-19T05:47:30;35.78;;;16.38;;
45792;SDS011;31495;42.740;22.908;2023-02-19T05:48:29;45.55;;;21.67;;
45792;SDS011;31495;42.740;22.908;2023-02-19T05:49:29;34.40;;;15.30;;
45792;SDS011;31495;42.740;22.908;2023-02-19T05:50:28;30.75;;;14.63;;
45792;SDS011;31495;42.740;22.908;2023-02-19T05:51:29;45.83;;;22.55;;
45792;SDS011;31495;42.740;22.908;2023-02-19T05:52:29;33.08;;;17.02;;
45792;SDS011;31495;42.740;22.908;2023-02-19T05:53:28;32.78;;;16.60;;
45792;SDS011;31495;42.740;22.908;2023-02-19T05:54:28;36.03;;;17.38;;
45792;SDS011;31495;42.740;22.908;2023-02-19T05:55:29;39.35;;;19.25;;
45792;SDS011;31495;42.740;22.908;2023-02-19T05:56:33;38.38;;;18.55;;
45792;SDS011;31495;42.740;22.908;2023-02-19T05:57:40;37.08;;;17.33;;
45792;SDS011;31495;42.740;22.908;2023-02-19T05:58:43;37.03;;;16.60;;
45792;SDS011;31495;42.740;22.908;2023-02-19T05:59:42;28.20;;;13.93;;
45792;SDS011;31495;42.740;22.908;2023-02-19T06:00:41;33.65;;;17.15;;
45792;SDS011;31495;42.740;22.908;2023-02-19T06:01:41;31.13;;;16.52;;
45792;SDS011;31495;42.740;22.908;2023-02-19T06:02:41;36.25;;;16.83;;
45792;SDS011;31495;42.740;22.908;2023-02-19T06:03:40;37.53;;;17.05;;
45792;SDS011;31495;42.740;22.908;2023-02-19T06:04:40;35.38;;;18.75;;
45792;SDS011;31495;42.740;22.908;2023-02-19T06:05:39;40.78;;;19.40;;
45792;SDS011;31495;42.740;22.908;2023-02-19T06:06:39;43.63;;;20.85;;
45792;SDS011;31495;42.740;22.908;2023-02-19T06:07:40;49.75;;;22.95;;
45792;SDS011;31495;42.740;22.908;2023-02-19T06:08:40;54.80;;;27.13;;
45792;SDS011;31495;42.740;22.908;2023-02-19T06:09:40;98.47;;;50.33;;
45792;SDS011;31495;42.740;22.908;2023-02-19T06:10:40;99.32;;;47.75;;
45792;SDS011;31495;42.740;22.908;2023-02-19T06:11:40;73.55;;;38.65;;
45792;SDS011;31495;42.740;22.908;2023-02-19T06:12:41;185.90;;;94.00;;
45792;SDS011;31495;42.740;22.908;2023-02-19T06:13:40;155.77;;;74.43;;
45792;SDS011;31495;42.740;22.908;2023-02-19T06:14:40;147.93;;;73.80;;
45792;SDS011;31495;42.740;22.908;2023-02-19T06:15:39;105.78;;;54.97;;
45792;SDS011;31495;42.740;22.908;2023-02-19T06:16:39;100.20;;;49.78;;
45792;SDS011;31495;42.740;22.908;2023-02-19T06:17:39;96.78;;;44.25;;
45792;SDS011;31495;42.740;22.908;2023-02-19T06:18:38;96.25;;;49.15;;
45792;SDS011;31495;42.740;22.908;2023-02-19T06:19:39;101.10;;;52.58;;
45792;SDS011;31495;42.740;22.908;2023-02-19T06:20:39;114.65;;;61.10;;
45792;SDS011;31495;42.740;22.908;2023-02-19T06:21:38;73.68;;;36.78;;
45792;SDS011;31495;42.740;22.908;2023-02-19T06:22:38;73.75;;;38.22;;
45792;SDS011;31495;42.740;22.908;2023-02-19T06:23:37;70.35;;;35.97;;
45792;SDS011;31495;42.740;22.908;2023-02-19T06:24:37;104.30;;;53.38;;
45792;SDS011;31495;42.740;22.908;2023-02-19T06:25:37;129.35;;;63.40;;
45792;SDS011;31495;42.740;22.908;2023-02-19T06:26:37;121.78;;;63.35;;
45792;SDS011;31495;42.740;22.908;2023-02-19T06:27:37;126.80;;;65.30;;
45792;SDS011;31495;42.740;22.908;2023-02-19T06:28:38;142.95;;;70.68;;
45792;SDS011;31495;42.740;22.908;2023-02-19T06:29:38;137.90;;;70.45;;
45792;SDS011;31495;42.740;22.908;2023-02-19T06:30:37;119.35;;;58.65;;
45792;SDS011;31495;42.740;22.908;2023-02-19T06:31:37;98.00;;;52.97;;
45792;SDS011;31495;42.740;22.908;2023-02-19T06:32:36;96.25;;;52.42;;
45792;SDS011;31495;42.740;22.908;2023-02-19T06:33:36;88.22;;;50.30;;
45792;SDS011;31495;42.740;22.908;2023-02-19T06:34:38;90.53;;;50.30;;